createdAt,value
2023-03-23T15:57:53.065Z,2.40
2023-03-23T16:00:22.879Z,2.15
2023-03-23T16:02:57.948Z,2.10
2023-03-23T16:05:24.912Z,3.20
2023-03-23T16:07:51.602Z,1.55
2023-03-23T16:10:21.639Z,2.10
2023-03-23T16:12:48.317Z,3.15
2023-03-23T16:15:16.183Z,2.15
2023-03-23T16:17:43.276Z,2.20
2023-03-23T16:20:18.880Z,2.20
2023-03-23T16:22:46.327Z,2.20
2023-03-23T16:25:13.812Z,2.53
2023-03-23T16:27:42.014Z,2.03
2023-03-23T16:30:17.841Z,2.28
2023-03-23T16:32:44.916Z,2.45
2023-03-23T16:35:11.550Z,2.65
2023-03-23T16:37:38.150Z,1.75
2023-03-23T16:40:06.022Z,2.45
2023-03-23T16:42:32.974Z,2.38
2023-03-23T16:44:59.486Z,2.00
2023-03-23T16:47:26.141Z,2.28
2023-03-23T16:49:52.923Z,2.25
2023-03-23T16:52:19.969Z,2.20
2023-03-23T16:54:47.124Z,2.13
2023-03-23T16:57:13.586Z,7.25
2023-03-23T16:59:40.179Z,4.75
2023-03-23T17:02:07.463Z,2.70
2023-03-23T17:04:34.862Z,2.63
2023-03-23T17:07:01.397Z,2.25
2023-03-23T17:09:28.515Z,2.92
2023-03-23T17:11:55.441Z,2.28
2023-03-23T17:14:21.910Z,1.80
2023-03-23T17:16:48.433Z,2.03
2023-03-23T17:19:14.871Z,2.25
2023-03-23T17:21:41.616Z,2.30
2023-03-23T17:24:08.499Z,3.63
2023-03-23T17:26:35.911Z,2.60
2023-03-23T17:29:04.005Z,2.70
2023-03-23T17:31:30.616Z,2.33
2023-03-23T17:33:57.029Z,2.53
2023-03-23T17:36:23.641Z,2.40
2023-03-23T17:38:50.842Z,2.47
2023-03-23T17:41:17.224Z,7.28
2023-03-23T17:43:44.060Z,4.38
2023-03-23T17:46:10.919Z,5.35
2023-03-23T17:48:37.478Z,4.70
2023-03-23T17:51:05.002Z,3.50
2023-03-23T17:53:32.633Z,2.97
2023-03-23T17:55:59.380Z,3.25
2023-03-23T17:58:26.055Z,6.20
2023-03-23T18:00:55.270Z,2.80
2023-03-23T18:03:23.266Z,5.18
2023-03-23T18:05:50.130Z,4.55
2023-03-23T18:08:18.252Z,3.63
2023-03-23T18:10:44.975Z,3.35
2023-03-23T18:13:11.860Z,2.90
2023-03-23T18:15:38.495Z,2.70
2023-03-23T18:18:05.732Z,3.13
2023-03-23T18:20:33.137Z,2.88
2023-03-23T18:22:59.635Z,3.25
2023-03-23T18:25:28.991Z,2.88
2023-03-23T18:27:55.473Z,2.78
2023-03-23T18:30:22.571Z,2.45
2023-03-23T18:32:49.654Z,2.90
2023-03-23T18:35:16.499Z,2.47
2023-03-23T18:37:43.141Z,2.47
2023-03-23T18:40:10.976Z,2.60
2023-03-23T18:42:39.893Z,3.13
2023-03-23T18:45:07.079Z,3.13
2023-03-23T18:47:36.408Z,3.03
2023-03-23T18:50:03.737Z,3.00
2023-03-23T18:52:30.248Z,4.15
2023-03-23T18:54:58.320Z,3.80
2023-03-23T18:57:25.502Z,2.70
2023-03-23T18:59:52.400Z,2.85
2023-03-23T19:02:19.838Z,3.65
2023-03-23T19:04:47.727Z,3.55
2023-03-23T19:07:16.096Z,3.30
2023-03-23T19:09:43.003Z,3.08
2023-03-23T19:12:09.940Z,3.33
2023-03-23T19:14:37.355Z,3.05
2023-03-23T19:17:04.249Z,3.00
2023-03-23T19:19:30.883Z,3.35
2023-03-23T19:21:57.326Z,4.20
2023-03-23T19:24:23.873Z,3.10
2023-03-23T19:26:50.459Z,3.42
2023-03-23T19:29:26.710Z,3.28
2023-03-23T19:31:55.019Z,2.97
2023-03-23T19:34:21.558Z,2.63
2023-03-23T19:36:53.778Z,3.33
2023-03-23T19:39:24.171Z,2.78
2023-03-23T19:41:50.934Z,3.08
2023-03-23T19:44:17.976Z,3.22
2023-03-23T19:46:45.405Z,2.80
2023-03-23T19:49:12.032Z,3.08
2023-03-23T19:51:39.705Z,2.33
2023-03-23T19:54:06.356Z,3.38
2023-03-23T19:56:33.907Z,2.70
2023-03-23T19:59:01.350Z,2.92
2023-03-23T20:01:27.894Z,2.80
2023-03-23T20:03:57.273Z,2.60
2023-03-23T20:06:28.715Z,2.83
2023-03-23T20:08:56.319Z,2.73
2023-03-23T20:11:24.506Z,2.58
2023-03-23T20:13:51.113Z,2.35
2023-03-23T20:16:18.632Z,2.80
2023-03-23T20:18:46.137Z,2.88
2023-03-23T20:21:19.666Z,2.83
2023-03-23T20:23:47.092Z,2.30
2023-03-23T20:26:18.489Z,2.53
2023-03-23T20:28:48.084Z,2.53
2023-03-23T20:31:23.126Z,2.05
2023-03-23T20:34:00.744Z,2.50
2023-03-23T20:36:40.606Z,2.60
2023-03-23T20:39:10.931Z,3.03
2023-03-23T20:41:38.208Z,2.92
2023-03-23T20:44:06.604Z,2.30
2023-03-23T20:46:33.919Z,3.10
2023-03-23T20:49:00.771Z,2.67
2023-03-23T20:51:27.277Z,3.13
2023-03-23T20:53:53.754Z,3.17
2023-03-23T20:56:20.290Z,2.60
2023-03-23T20:58:47.409Z,2.90
2023-03-23T21:01:15.729Z,2.78
2023-03-23T21:03:42.856Z,3.10
2023-03-23T21:06:10.343Z,3.78
2023-03-23T21:08:39.964Z,3.85
2023-03-23T21:11:09.294Z,4.80
2023-03-23T21:13:37.257Z,4.60
2023-03-23T21:16:04.897Z,4.70
2023-03-23T21:18:31.900Z,4.57
2023-03-23T21:20:58.791Z,4.78
2023-03-23T21:23:25.701Z,5.72
2023-03-23T21:25:53.356Z,6.55
2023-03-23T21:28:19.825Z,5.70
2023-03-23T21:30:46.728Z,6.03
2023-03-23T21:33:13.635Z,6.82
2023-03-23T21:35:41.145Z,5.75
2023-03-23T21:38:09.125Z,6.53
2023-03-23T21:40:36.116Z,8.25
2023-03-23T21:43:02.579Z,6.53
2023-03-23T21:45:28.985Z,5.72
2023-03-23T21:47:55.743Z,6.78
2023-03-23T21:50:22.611Z,5.70
2023-03-23T21:52:49.100Z,5.43
2023-03-23T21:55:15.935Z,5.97
2023-03-23T21:57:42.709Z,5.07
2023-03-23T22:00:11.068Z,6.15
2023-03-23T22:02:37.830Z,6.72
2023-03-23T22:05:04.425Z,5.75
2023-03-23T22:07:31.558Z,5.22
2023-03-23T22:09:57.984Z,4.55
2023-03-23T22:12:24.958Z,4.43
2023-03-23T22:14:51.412Z,4.93
2023-03-23T22:17:18.125Z,4.30
2023-03-23T22:19:44.492Z,4.70
2023-03-23T22:22:10.915Z,5.13
2023-03-23T22:24:37.424Z,4.55
2023-03-23T22:27:04.268Z,3.95
2023-03-23T22:29:30.699Z,4.38
2023-03-23T22:31:57.151Z,4.63
2023-03-23T22:34:23.493Z,4.88
2023-03-23T22:36:51.378Z,4.20
2023-03-23T22:39:17.964Z,4.20
2023-03-23T22:41:44.639Z,4.47
2023-03-23T22:44:15.276Z,3.90
2023-03-23T22:46:42.673Z,4.25
2023-03-23T22:49:09.579Z,3.92
2023-03-23T22:51:35.982Z,4.25
2023-03-23T22:54:03.825Z,5.28
2023-03-23T22:56:30.385Z,5.82
2023-03-23T22:58:56.861Z,4.63
2023-03-23T23:01:23.730Z,4.38
2023-03-23T23:03:50.578Z,4.03
2023-03-23T23:06:19.686Z,4.10
2023-03-23T23:08:47.370Z,3.58
2023-03-23T23:11:17.306Z,3.90
2023-03-23T23:13:43.894Z,3.90
2023-03-23T23:16:11.965Z,3.80
2023-03-23T23:18:39.544Z,3.47
2023-03-23T23:21:10.361Z,3.47
2023-03-23T23:23:37.059Z,3.75
2023-03-23T23:26:04.913Z,3.88
2023-03-23T23:28:31.394Z,3.83
2023-03-23T23:30:58.239Z,4.13
2023-03-23T23:33:24.688Z,3.60
2023-03-23T23:35:51.342Z,3.30
2023-03-23T23:38:18.080Z,3.40
2023-03-23T23:40:46.195Z,3.83
2023-03-23T23:43:14.911Z,4.43
2023-03-23T23:45:41.486Z,3.60
2023-03-23T23:48:08.824Z,3.35
2023-03-23T23:50:35.956Z,3.50
2023-03-23T23:53:02.457Z,3.63
2023-03-23T23:55:29.056Z,3.60
2023-03-23T23:57:55.913Z,4.28
